KTQE

Details ICAO KTQE
Name TEKAMAH MUNI
Region United States
Timezone America/Chicago (UTC-6.0)
Plans Departing 0
Arriving 1
Stats Elevation 1,027 ft / 313 m (AMSL)
Location 41.763532° -96.177935°
Runways 1
Magnetic Variation 2.709° E
Sunrise 2017-12-12 13:44:21 UTC / 2017-12-12 07:44:21 Local
Sunset 2017-12-12 22:55:38 UTC / 2017-12-12 16:55:38 Local
Advertisement - Login to hide

Runways

ID Width Length Bearing (true) Bearing (mag) Surface Threshold Offset Overrun Length
14 75 ft / 23 m 4,010 ft / 1,222 m 153.70° 150.99° Concrete 0 ft / 0 m 0 ft / 0 m
32 75 ft / 23 m 4,010 ft / 1,222 m 333.70° 330.99° Concrete 0 ft / 0 m 0 ft / 0 m

Map

Weather


0- 5 10 15 20 25 30 35+ Temperature / ° C

Clouds and Precipitation
Forecast for 2017-12-13 06:00 UTC. Updated 21 minutes ago

Ground ~20,000 ft ~40,000 ft Winds

METAR

KTQE 130054Z AUTO 18008KT 10SM CLR M02/M07 A2993 RMK AO2 SLP149 T10171067

TAF

Not found

Frequencies

Recorded 127.27 MHz ASOS
Approach 124.50 MHz OMAHA APP/DEP
Unicom 123.00 MHz CTAF/UNICOM
Warning: Do not use this data for real-world aviation or navigation. No guarantee of current accuracy is given.